Time;durP1;ratioP1;P1;durP2;ratioP2;P2;SDS_P1;SDS_P2;PMS_P1;PMS_P2;Temp;Humidity;BMP_temperature;BMP_pressure;BME280_temperature;BME280_humidity;BME280_pressure;Samples;Min_cycle;Max_cycle;Signal;HPM_P1;HPM_P2
2022/11/12 00:00:31;;;;;;;16.95;10.90;;;7.20;99.90;;;;;;4924371;29;20043;-85
2022/11/12 00:02:57;;;;;;;18.75;10.77;;;7.10;99.90;;;;;;4940306;29;20186;-85
2022/11/12 00:05:23;;;;;;;16.30;10.15;;;7.80;99.90;;;;;;4924289;29;20050;-85
2022/11/12 00:07:48;;;;;;;14.63;10.65;;;7.10;99.90;;;;;;4955635;28;20043;-85
2022/11/12 00:10:15;;;;;;;16.00;10.50;;;7.10;99.90;;;;;;4929521;29;20059;-85
2022/11/12 00:12:41;;;;;;;15.38;10.68;;;7.10;99.90;;;;;;4905768;29;20044;-85
2022/11/12 00:15:07;;;;;;;15.02;10.43;;;7.10;99.90;;;;;;4921498;29;20050;-85
2022/11/12 00:17:33;;;;;;;16.35;10.55;;;7.10;99.90;;;;;;4945954;29;20078;-85
2022/11/12 00:19:58;;;;;;;14.70;10.27;;;8.50;99.90;;;;;;4939845;29;20082;-86
2022/11/12 00:22:24;;;;;;;16.55;10.80;;;7.00;99.90;;;;;;4923773;29;20407;-85
2022/11/12 00:24:50;;;;;;;14.75;9.52;;;7.10;99.90;;;;;;4924091;29;20497;-85
2022/11/12 00:27:15;;;;;;;13.45;9.85;;;7.10;99.90;;;;;;4923634;29;20427;-85
2022/11/12 00:29:41;;;;;;;13.25;9.20;;;7.00;99.90;;;;;;4939489;29;20038;-86
2022/11/12 00:32:08;;;;;;;13.23;9.27;;;7.00;99.90;;;;;;4939621;29;20031;-86
2022/11/12 00:34:33;;;;;;;13.30;9.32;;;8.20;99.90;;;;;;4939531;29;20131;-85
2022/11/12 00:37:00;;;;;;;13.50;10.07;;;6.90;99.90;;;;;;4939375;29;20121;-85
2022/11/12 00:39:26;;;;;;;16.75;10.23;;;6.80;99.90;;;;;;4923340;29;20495;-85
2022/11/12 00:41:52;;;;;;;16.05;10.85;;;6.80;99.90;;;;;;4923105;28;20038;-85
2022/11/12 00:44:17;;;;;;;17.50;10.65;;;6.80;99.90;;;;;;4939167;29;20126;-85
2022/11/12 00:46:43;;;;;;;18.45;10.77;;;6.70;99.90;;;;;;4939228;29;20047;-85
2022/11/12 00:49:09;;;;;;;17.25;10.90;;;7.40;99.90;;;;;;4939209;29;20050;-85
2022/11/12 00:51:35;;;;;;;15.48;10.70;;;6.70;99.90;;;;;;4923519;29;20039;-85
2022/11/12 00:54:01;;;;;;;18.33;11.13;;;7.00;99.90;;;;;;4938985;29;20066;-85
2022/11/12 00:56:26;;;;;;;16.42;10.93;;;6.70;99.90;;;;;;4924480;29;20058;-85
2022/11/12 00:58:52;;;;;;;15.75;11.30;;;7.80;99.90;;;;;;4928012;29;20114;-85
2022/11/12 01:01:18;;;;;;;17.77;11.52;;;6.70;99.90;;;;;;4947166;29;20099;-85
2022/11/12 01:03:44;;;;;;;18.95;10.43;;;7.40;99.90;;;;;;4963178;28;20051;-86
2022/11/12 01:06:16;;;;;;;16.75;11.18;;;6.70;99.90;;;;;;4963075;28;20034;-85
2022/11/12 01:08:42;;;;;;;16.40;11.32;;;6.70;99.90;;;;;;4926570;29;20055;-85
2022/11/12 01:11:11;;;;;;;16.13;11.07;;;6.70;99.90;;;;;;4933509;29;20035;-85
2022/11/12 01:13:41;;;;;;;15.70;11.90;;;6.60;99.90;;;;;;4935814;29;20047;-85
2022/11/12 01:16:13;;;;;;;18.58;11.93;;;6.60;99.90;;;;;;4927843;29;20067;-85
2022/11/12 01:18:38;;;;;;;16.38;11.13;;;7.50;99.90;;;;;;4938844;29;20043;-85
2022/11/12 01:21:06;;;;;;;18.52;12.02;;;6.60;99.90;;;;;;4922799;29;20066;-85
2022/11/12 01:23:34;;;;;;;19.75;11.98;;;7.10;99.90;;;;;;4954500;29;20066;-85
2022/11/12 01:26:08;;;;;;;19.77;11.95;;;8.00;99.90;;;;;;4938816;29;20129;-85
2022/11/12 01:28:34;;;;;;;17.30;11.40;;;6.60;99.90;;;;;;4938554;29;20035;-85
2022/11/12 01:31:16;;;;;;;15.82;10.90;;;6.60;99.90;;;;;;4938214;29;20195;-85
2022/11/12 01:33:43;;;;;;;18.02;11.82;;;6.60;99.90;;;;;;4955129;29;20464;-86
2022/11/12 01:36:09;;;;;;;17.00;12.07;;;6.50;99.90;;;;;;4937983;29;20070;-85
2022/11/12 01:38:36;;;;;;;17.38;12.07;;;6.60;99.90;;;;;;4922784;29;20142;-85
2022/11/12 01:41:03;;;;;;;18.75;11.32;;;6.50;99.90;;;;;;4938469;29;20460;-85
2022/11/12 01:43:29;;;;;;;17.17;10.77;;;6.50;99.90;;;;;;4922573;29;20507;-85
2022/11/12 01:45:55;;;;;;;15.23;11.07;;;6.50;99.90;;;;;;4938189;29;20047;-85
2022/11/12 01:48:32;;;;;;;18.63;11.80;;;6.50;99.90;;;;;;4922501;29;20039;-85
2022/11/12 01:50:58;;;;;;;19.08;11.77;;;6.50;99.90;;;;;;4938140;29;20518;-85
2022/11/12 01:53:27;;;;;;;21.25;12.80;;;6.90;99.90;;;;;;4939121;29;20047;-85
2022/11/12 01:55:53;;;;;;;17.65;12.38;;;6.40;99.90;;;;;;4953928;29;20511;-85
2022/11/12 01:58:23;;;;;;;13.50;9.32;;;6.70;99.90;;;;;;4938122;29;20051;-85
2022/11/12 02:00:50;;;;;;;18.30;11.55;;;6.40;99.90;;;;;;4938327;29;20461;-86
2022/11/12 02:03:20;;;;;;;20.15;12.60;;;7.50;99.90;;;;;;4922678;29;20046;-86
2022/11/12 02:05:50;;;;;;;15.63;11.88;;;6.40;99.90;;;;;;4938524;29;20054;-86
2022/11/12 02:08:16;;;;;;;17.25;12.15;;;6.80;99.90;;;;;;4941964;29;20078;-85
2022/11/12 02:10:42;;;;;;;15.88;11.65;;;6.30;99.90;;;;;;4926762;29;20039;-85
2022/11/12 02:15:54;;;;;;;18.40;10.98;;;6.40;99.90;;;;;;4944836;29;20047;-85
2022/11/12 02:18:20;;;;;;;16.00;11.73;;;7.10;99.90;;;;;;4958194;29;20047;-85
2022/11/12 02:20:56;;;;;;;17.23;11.82;;;7.00;99.90;;;;;;4926404;29;20082;-85
2022/11/12 02:23:22;;;;;;;15.77;10.93;;;6.50;99.90;;;;;;4941441;29;20043;-85
2022/11/12 02:25:48;;;;;;;17.75;12.40;;;6.20;99.90;;;;;;4922652;29;20050;-85
2022/11/12 02:28:15;;;;;;;17.75;11.98;;;6.20;99.90;;;;;;4922654;29;20139;-85
2022/11/12 02:30:46;;;;;;;18.65;12.57;;;7.60;99.90;;;;;;4938585;29;20042;-85
2022/11/12 02:33:12;;;;;;;18.42;12.35;;;6.20;99.90;;;;;;4922497;29;20036;-85
2022/11/12 02:35:38;;;;;;;21.05;12.40;;;6.30;99.90;;;;;;4906847;29;20036;-86
2022/11/12 02:38:05;;;;;;;17.88;13.13;;;6.20;99.90;;;;;;4941731;29;20099;-85
2022/11/12 02:40:31;;;;;;;17.95;13.02;;;7.10;99.90;;;;;;4942030;29;20047;-85
2022/11/12 02:42:56;;;;;;;17.42;13.38;;;6.40;99.90;;;;;;4927516;29;20067;-85
2022/11/12 02:45:22;;;;;;;21.95;13.15;;;6.30;99.90;;;;;;4926703;29;20543;-85
2022/11/12 02:47:48;;;;;;;20.98;13.70;;;6.50;99.90;;;;;;4925802;29;20046;-85
2022/11/12 02:50:14;;;;;;;16.98;11.98;;;6.70;99.90;;;;;;4923604;29;20109;-85
2022/11/12 02:52:40;;;;;;;16.38;12.15;;;6.20;99.90;;;;;;4906618;29;20046;-85
2022/11/12 02:55:07;;;;;;;18.23;11.63;;;6.20;99.90;;;;;;4922262;29;20425;-85
2022/11/12 02:57:33;;;;;;;19.45;12.57;;;6.20;99.90;;;;;;4906595;29;20520;-85
2022/11/12 02:59:59;;;;;;;20.35;12.95;;;6.30;99.90;;;;;;4922294;29;20036;-85
2022/11/12 03:02:25;;;;;;;16.17;12.45;;;6.90;99.90;;;;;;4922211;29;20036;-85
2022/11/12 03:04:50;;;;;;;18.55;12.55;;;6.20;99.90;;;;;;4938196;29;20044;-85
2022/11/12 03:07:16;;;;;;;18.42;12.20;;;6.70;99.90;;;;;;4924888;29;20043;-85
2022/11/12 03:09:42;;;;;;;17.38;12.02;;;7.00;99.90;;;;;;4941394;29;20110;-85
2022/11/12 03:12:08;;;;;;;17.58;11.57;;;6.10;99.90;;;;;;4925309;29;20043;-85
2022/11/12 03:14:33;;;;;;;18.17;12.52;;;6.10;99.90;;;;;;4941206;29;20057;-85
2022/11/12 03:16:59;;;;;;;18.83;12.30;;;6.10;99.90;;;;;;4909674;29;20043;-85
2022/11/12 03:19:25;;;;;;;21.50;13.82;;;6.10;99.90;;;;;;4924115;29;20053;-85
2022/11/12 03:21:50;;;;;;;15.48;11.10;;;5.30;99.90;;;;;;4909514;29;20130;-86
2022/11/12 03:24:16;;;;;;;21.60;13.45;;;6.40;99.90;;;;;;4924840;29;20046;-86
2022/11/12 03:26:42;;;;;;;16.60;13.20;;;7.50;99.90;;;;;;4924687;29;20512;-85
2022/11/12 03:29:07;;;;;;;21.02;11.73;;;6.70;99.90;;;;;;4909275;29;20043;-85
2022/11/12 03:31:34;;;;;;;23.75;13.93;;;7.40;99.90;;;;;;4925278;29;20039;-85
2022/11/12 03:34:00;;;;;;;18.02;12.65;;;6.90;99.90;;;;;;4957230;29;20118;-85
2022/11/12 03:36:25;;;;;;;18.95;13.10;;;7.50;99.90;;;;;;4940204;29;20090;-85
2022/11/12 03:38:51;;;;;;;16.42;12.05;;;6.80;99.90;;;;;;4924926;29;20046;-85
2022/11/12 03:41:17;;;;;;;16.88;12.20;;;7.30;99.90;;;;;;4908908;29;20109;-86
2022/11/12 03:43:42;;;;;;;16.75;12.05;;;6.70;99.90;;;;;;4909342;29;20039;-85
2022/11/12 03:46:08;;;;;;;16.15;12.10;;;6.10;99.90;;;;;;4909174;29;20550;-85
2022/11/12 03:48:34;;;;;;;23.95;12.65;;;6.00;99.90;;;;;;4924357;29;20074;-85
2022/11/12 03:50:59;;;;;;;20.75;12.98;;;5.90;99.90;;;;;;4909038;29;20043;-85
2022/11/12 03:53:25;;;;;;;17.52;12.60;;;6.80;99.90;;;;;;4940983;29;20039;-86
2022/11/12 03:55:51;;;;;;;20.42;13.45;;;6.40;99.90;;;;;;4924650;29;20412;-85
2022/11/12 03:58:17;;;;;;;19.83;13.88;;;6.40;99.90;;;;;;4924633;29;20130;-85
2022/11/12 04:00:43;;;;;;;20.52;13.90;;;5.90;99.90;;;;;;4924522;29;20078;-85
2022/11/12 04:03:09;;;;;;;18.92;13.30;;;5.90;99.90;;;;;;4924218;29;20043;-85
2022/11/12 04:08:36;;;;;;;22.42;13.68;;;7.20;99.90;;;;;;4942461;29;20138;-85
2022/11/12 04:11:05;;;;;;;18.58;13.77;;;5.90;99.90;;;;;;4940036;29;20039;-85
2022/11/12 04:13:31;;;;;;;19.73;13.77;;;5.90;99.90;;;;;;4924204;29;20042;-85
2022/11/12 04:21:54;;;;;;;18.85;12.88;;;5.80;99.90;;;;;;4942608;29;20471;-85
2022/11/12 04:27:27;;;;;;;19.27;12.88;;;5.80;99.90;;;;;;4955465;29;20044;-86
2022/11/12 04:32:45;;;;;;;18.65;12.02;;;5.80;99.90;;;;;;4955186;29;20047;-86
2022/11/12 04:35:12;;;;;;;18.52;12.02;;;6.60;99.90;;;;;;4939749;29;20043;-85
2022/11/12 04:37:44;;;;;;;18.85;12.63;;;6.90;99.90;;;;;;4908028;29;20039;-86
2022/11/12 04:46:01;;;;;;;22.13;13.10;;;5.60;99.90;;;;;;4948332;29;20053;-85
2022/11/12 04:48:28;;;;;;;25.80;13.38;;;5.60;99.90;;;;;;4938728;29;20074;-85
2022/11/12 04:50:57;;;;;;;15.07;11.95;;;5.50;99.90;;;;;;4939676;29;20047;-85
2022/11/12 04:53:23;;;;;;;20.02;12.45;;;7.00;99.90;;;;;;4939269;29;20047;-85
2022/11/12 04:55:54;;;;;;;18.02;13.27;;;5.50;99.90;;;;;;4938921;29;20055;-86
2022/11/12 04:58:20;;;;;;;17.75;12.57;;;6.50;99.90;;;;;;4923415;29;20512;-86
2022/11/12 05:00:47;;;;;;;16.30;12.07;;;5.50;99.90;;;;;;4923476;29;20121;-86
2022/11/12 05:03:13;;;;;;;17.65;11.32;;;5.40;99.90;;;;;;4921619;29;20055;-85
2022/11/12 05:05:39;;;;;;;14.55;10.75;;;5.50;99.90;;;;;;4923175;29;20514;-85
2022/11/12 05:08:04;;;;;;;16.23;11.05;;;5.30;99.90;;;;;;4923028;29;20047;-85
2022/11/12 05:10:30;;;;;;;15.63;11.40;;;5.40;99.90;;;;;;4923202;29;20050;-86
2022/11/12 05:12:56;;;;;;;25.58;12.23;;;5.40;99.90;;;;;;4923066;29;20047;-85
2022/11/12 05:15:22;;;;;;;28.90;12.63;;;5.30;99.90;;;;;;4939174;29;20043;-86
2022/11/12 05:17:48;;;;;;;60.92;13.25;;;6.10;99.90;;;;;;4939407;29;20035;-86
2022/11/12 05:20:14;;;;;;;87.18;13.38;;;5.30;99.90;;;;;;4948698;29;20063;-82
2022/11/12 05:22:40;;;;;;;18.83;10.60;;;6.00;99.90;;;;;;4931244;29;20480;-86
2022/11/12 05:25:07;;;;;;;16.20;10.88;;;5.20;99.90;;;;;;4951849;29;20031;-85
2022/11/12 05:27:33;;;;;;;16.13;10.38;;;5.20;99.90;;;;;;4939961;29;20111;-86
2022/11/12 05:29:59;;;;;;;30.85;10.73;;;5.80;99.90;;;;;;4961179;28;20027;-86
2022/11/12 05:32:26;;;;;;;36.70;9.32;;;5.50;99.90;;;;;;4940280;29;20412;-86
2022/11/12 05:34:51;;;;;;;32.33;9.23;;;5.70;99.90;;;;;;4923310;29;20036;-86
2022/11/12 05:37:18;;;;;;;19.23;9.10;;;5.90;99.90;;;;;;4922992;29;20046;-86
2022/11/12 05:39:43;;;;;;;18.02;9.15;;;5.90;99.90;;;;;;4939137;29;20432;-86
2022/11/12 05:42:09;;;;;;;17.13;9.80;;;6.20;99.90;;;;;;4922524;29;20050;-86
2022/11/12 05:44:35;;;;;;;226.55;13.95;;;5.00;99.90;;;;;;4938627;29;20114;-86
2022/11/12 05:47:01;;;;;;;163.75;11.20;;;4.90;99.90;;;;;;4922639;29;20039;-86
2022/11/12 05:49:27;;;;;;;143.63;11.65;;;5.20;99.90;;;;;;4938870;29;20043;-86
2022/11/12 05:51:52;;;;;;;205.05;12.18;;;4.80;99.90;;;;;;4938780;29;20043;-86
2022/11/12 05:54:18;;;;;;;169.25;12.30;;;5.80;99.90;;;;;;4924666;29;20039;-86
2022/11/12 05:56:44;;;;;;;171.98;12.52;;;5.50;99.90;;;;;;4925496;29;20138;-86
2022/11/12 05:59:11;;;;;;;118.82;10.68;;;6.30;99.90;;;;;;4938499;29;20043;-86
2022/11/12 06:01:42;;;;;;;122.75;10.52;;;4.70;99.90;;;;;;4939350;29;20062;-85
2022/11/12 06:04:13;;;;;;;74.40;10.40;;;6.00;99.90;;;;;;4938791;29;20078;-86
2022/11/12 06:06:40;;;;;;;74.65;10.52;;;4.70;99.90;;;;;;4938995;29;20490;-86
2022/11/12 06:09:07;;;;;;;93.55;10.90;;;4.60;99.90;;;;;;4922923;29;20039;-86
2022/11/12 06:11:33;;;;;;;90.55;10.38;;;4.60;99.90;;;;;;4938625;29;20054;-86
2022/11/12 06:13:59;;;;;;;61.28;11.57;;;5.40;99.90;;;;;;4938663;29;20042;-86
2022/11/12 06:16:25;;;;;;;62.83;9.07;;;5.30;99.90;;;;;;4954113;29;20035;-85
2022/11/12 06:18:51;;;;;;;38.83;9.00;;;4.50;99.90;;;;;;4922434;29;20102;-86
2022/11/12 06:21:20;;;;;;;30.00;8.95;;;4.40;99.90;;;;;;4922743;29;20043;-86
2022/11/12 06:23:57;;;;;;;24.50;8.18;;;4.80;99.90;;;;;;4938351;29;20074;-86
2022/11/12 06:26:26;;;;;;;17.40;8.23;;;4.40;99.90;;;;;;4926766;29;20051;-86
2022/11/12 06:28:51;;;;;;;10.95;7.90;;;4.50;99.90;;;;;;4919115;29;20047;-86
2022/11/12 06:31:18;;;;;;;43.20;9.57;;;4.50;99.90;;;;;;4919349;29;20043;-86
2022/11/12 06:33:44;;;;;;;23.45;8.82;;;4.50;99.90;;;;;;4903421;29;20497;-86
2022/11/12 06:36:11;;;;;;;39.28;9.23;;;4.40;99.90;;;;;;4903820;29;20126;-86
2022/11/12 06:38:38;;;;;;;46.47;9.15;;;5.20;99.90;;;;;;4919249;29;20044;-86
2022/11/12 06:41:05;;;;;;;54.78;10.15;;;4.50;99.90;;;;;;4937186;29;20046;-86
2022/11/12 06:43:32;;;;;;;44.75;10.13;;;4.40;99.90;;;;;;4938408;29;20515;-86
2022/11/12 06:46:03;;;;;;;27.60;8.77;;;4.70;99.90;;;;;;4922829;29;20462;-85
2022/11/12 06:48:29;;;;;;;36.15;8.80;;;4.30;99.90;;;;;;4938100;29;20079;-86
2022/11/12 06:50:56;;;;;;;23.80;8.90;;;4.30;99.90;;;;;;4922311;29;20436;-86
2022/11/12 06:53:23;;;;;;;24.42;9.07;;;5.40;99.90;;;;;;4938556;29;20070;-85
2022/11/12 06:55:48;;;;;;;12.90;8.07;;;4.20;99.90;;;;;;4941166;29;20472;-85
2022/11/12 06:58:14;;;;;;;24.83;9.20;;;5.80;99.90;;;;;;4925622;29;20055;-85
2022/11/12 07:00:40;;;;;;;31.52;10.00;;;4.20;99.90;;;;;;4925560;29;20062;-86
2022/11/12 07:03:07;;;;;;;10.63;8.50;;;4.20;99.90;;;;;;4925467;29;20101;-86
2022/11/12 07:05:39;;;;;;;10.23;8.50;;;4.20;99.90;;;;;;4941516;29;20110;-86
2022/11/12 07:08:05;;;;;;;10.02;8.25;;;4.20;99.90;;;;;;4940884;29;20187;-86
2022/11/12 07:10:31;;;;;;;10.15;8.05;;;4.30;99.90;;;;;;4925674;29;20094;-86
2022/11/12 07:12:57;;;;;;;9.05;7.70;;;4.20;99.90;;;;;;4941392;29;20496;-85
2022/11/12 07:15:23;;;;;;;8.85;7.20;;;4.20;99.90;;;;;;4925557;29;20043;-85
2022/11/12 07:17:49;;;;;;;9.70;7.70;;;4.20;99.90;;;;;;4941310;29;20050;-86
2022/11/12 07:20:15;;;;;;;12.75;8.23;;;4.60;99.90;;;;;;4942347;29;20117;-86
2022/11/12 07:22:41;;;;;;;11.85;8.07;;;4.30;99.90;;;;;;4936947;29;20452;-87
2022/11/12 07:25:07;;;;;;;9.15;7.57;;;4.20;99.90;;;;;;4890895;29;20039;-87
2022/11/12 07:27:32;;;;;;;11.40;8.73;;;4.30;99.90;;;;;;4919569;29;20039;-85
2022/11/12 07:29:58;;;;;;;11.02;8.27;;;4.20;99.90;;;;;;4925197;29;20047;-85
2022/11/12 07:32:24;;;;;;;12.60;8.57;;;4.50;99.90;;;;;;4941108;29;20122;-85
2022/11/12 07:34:49;;;;;;;14.00;8.82;;;5.80;99.90;;;;;;4925535;29;20039;-85
2022/11/12 07:37:15;;;;;;;49.08;10.15;;;4.30;99.90;;;;;;4905961;29;20109;-86
2022/11/12 07:39:41;;;;;;;46.63;10.25;;;4.50;99.90;;;;;;4906430;29;20400;-85
2022/11/12 07:42:07;;;;;;;69.10;10.48;;;4.30;99.90;;;;;;4905843;29;20040;-85
2022/11/12 07:44:32;;;;;;;66.85;11.02;;;3.00;99.90;;;;;;4921703;29;20087;-85
2022/11/12 07:46:58;;;;;;;66.78;9.82;;;4.60;99.90;;;;;;4906359;29;20047;-84
2022/11/12 07:49:24;;;;;;;70.88;10.65;;;4.90;99.90;;;;;;4905717;29;20440;-85
2022/11/12 07:51:49;;;;;;;51.08;9.85;;;4.50;99.90;;;;;;4920666;29;20144;-84
2022/11/12 07:54:15;;;;;;;28.52;8.98;;;4.40;99.90;;;;;;4910138;29;20050;-84
2022/11/12 07:56:41;;;;;;;20.63;8.02;;;4.40;99.90;;;;;;4925006;29;20521;-86
2022/11/12 07:59:07;;;;;;;25.13;8.30;;;4.90;99.90;;;;;;4925854;29;20057;-86
2022/11/12 08:01:38;;;;;;;27.33;8.45;;;4.40;99.90;;;;;;4925212;29;20050;-86
2022/11/12 08:04:07;;;;;;;18.00;7.93;;;4.50;99.90;;;;;;4940830;28;20551;-84
2022/11/12 08:06:33;;;;;;;28.77;8.52;;;4.50;99.90;;;;;;4942253;29;20051;-88
2022/11/12 08:09:04;;;;;;;30.75;8.27;;;4.90;99.90;;;;;;4925437;29;20093;-86
2022/11/12 08:11:30;;;;;;;16.75;8.85;;;4.50;99.90;;;;;;4941075;29;20054;-88
2022/11/12 08:13:56;;;;;;;11.02;7.40;;;5.90;99.90;;;;;;4924684;29;20035;-86
2022/11/12 08:16:22;;;;;;;10.20;7.13;;;5.00;99.90;;;;;;4909234;29;20408;-88
2022/11/12 08:18:48;;;;;;;9.15;7.57;;;4.60;99.90;;;;;;4932295;29;20505;-86
2022/11/12 08:21:16;;;;;;;9.30;7.28;;;4.60;99.90;;;;;;4937396;29;20047;-86
2022/11/12 08:23:41;;;;;;;9.05;7.50;;;4.70;99.90;;;;;;4940096;29;20106;-89
2022/11/12 08:26:12;;;;;;;8.30;7.35;;;4.70;99.90;;;;;;4924433;29;20444;-83
2022/11/12 08:28:38;;;;;;;8.25;7.05;;;5.20;99.90;;;;;;4939689;29;20555;-84
2022/11/12 08:31:09;;;;;;;7.70;6.85;;;5.10;99.90;;;;;;4939574;29;20051;-85
2022/11/12 08:33:35;;;;;;;7.72;6.75;;;4.90;99.90;;;;;;4954639;29;20038;-84
2022/11/12 08:36:03;;;;;;;8.50;7.30;;;4.90;99.90;;;;;;4922946;29;20075;-84
2022/11/12 08:38:28;;;;;;;8.98;7.45;;;5.00;99.90;;;;;;4957160;29;20078;-85
2022/11/12 08:40:54;;;;;;;8.15;7.25;;;5.20;99.90;;;;;;4926379;29;20053;-84
2022/11/12 08:43:20;;;;;;;8.25;7.30;;;5.80;99.90;;;;;;4925500;29;20047;-84
2022/11/12 08:45:47;;;;;;;9.43;7.78;;;5.10;99.90;;;;;;4942333;28;20143;-84
2022/11/12 08:48:13;;;;;;;11.20;8.55;;;5.20;99.90;;;;;;4925260;29;20039;-84
2022/11/12 08:50:40;;;;;;;10.80;9.00;;;5.30;99.90;;;;;;4920479;29;20062;-84
2022/11/12 08:53:11;;;;;;;11.52;8.93;;;5.30;99.90;;;;;;4922419;29;20039;-85
2022/11/12 08:55:37;;;;;;;12.52;8.48;;;5.40;99.90;;;;;;4939155;29;20480;-84
2022/11/12 08:58:04;;;;;;;14.20;10.77;;;5.60;99.90;;;;;;4923490;29;20051;-84
2022/11/12 09:00:37;;;;;;;15.38;10.35;;;5.70;99.90;;;;;;4939226;29;20043;-83
2022/11/12 09:03:05;;;;;;;12.73;9.50;;;6.80;99.90;;;;;;4939542;29;20113;-84
2022/11/12 09:05:31;;;;;;;14.98;11.27;;;6.00;99.90;;;;;;4939159;29;20053;-82
2022/11/12 09:08:06;;;;;;;15.15;12.02;;;6.60;99.90;;;;;;4938516;29;20043;-83
2022/11/12 09:10:33;;;;;;;13.25;10.77;;;7.10;99.90;;;;;;4939093;29;20441;-83
2022/11/12 09:12:59;;;;;;;15.48;11.63;;;7.10;99.90;;;;;;4938990;29;20137;-83
2022/11/12 09:15:26;;;;;;;15.88;11.77;;;8.70;99.90;;;;;;4939398;28;20035;-82
2022/11/12 09:18:03;;;;;;;14.90;11.80;;;8.00;99.90;;;;;;4954449;29;20082;-82
2022/11/12 09:20:30;;;;;;;17.45;11.63;;;8.10;99.90;;;;;;4954806;29;20054;-82
2022/11/12 09:23:04;;;;;;;14.88;11.27;;;8.00;99.90;;;;;;4922987;29;20043;-82
2022/11/12 09:25:30;;;;;;;15.32;11.02;;;7.80;99.90;;;;;;4955533;29;20070;-82
2022/11/12 09:27:56;;;;;;;18.95;12.02;;;7.80;99.90;;;;;;4955316;29;20051;-82
2022/11/12 09:30:22;;;;;;;14.55;10.10;;;7.80;99.90;;;;;;4922908;29;20555;-82
2022/11/12 09:32:48;;;;;;;13.52;11.32;;;7.80;99.90;;;;;;4954476;29;20051;-81
2022/11/12 09:35:14;;;;;;;16.15;11.63;;;7.80;99.90;;;;;;4938757;29;20051;-82
2022/11/12 09:37:39;;;;;;;17.30;11.80;;;7.90;99.90;;;;;;4939443;29;20043;-81
2022/11/12 09:40:06;;;;;;;16.35;11.73;;;8.20;99.90;;;;;;4909498;29;20051;-82
2022/11/12 09:42:35;;;;;;;16.60;11.63;;;8.40;99.90;;;;;;4913240;29;20047;-82
2022/11/12 09:45:19;;;;;;;14.52;10.43;;;8.60;99.90;;;;;;4961498;29;20026;-82
2022/11/12 09:47:51;;;;;;;14.95;10.88;;;8.80;99.90;;;;;;4961774;29;20031;-81
2022/11/12 09:50:28;;;;;;;15.25;11.48;;;9.00;99.90;;;;;;4938981;29;20043;-82
2022/11/12 09:53:21;;;;;;;14.70;11.65;;;9.20;99.90;;;;;;4938455;29;20080;-82
2022/11/12 09:55:50;;;;;;;13.48;10.85;;;9.50;99.90;;;;;;4953608;29;20047;-82
2022/11/12 09:58:17;;;;;;;13.10;10.27;;;9.80;99.90;;;;;;4938821;29;20047;-82
2022/11/12 10:01:00;;;;;;;15.25;10.02;;;10.10;99.90;;;;;;4922548;29;20058;-82
2022/11/12 10:03:38;;;;;;;13.32;10.10;;;10.80;99.90;;;;;;4918861;29;20043;-83
2022/11/12 10:06:15;;;;;;;12.40;9.10;;;11.70;99.90;;;;;;4918740;29;20043;-83
2022/11/12 10:08:48;;;;;;;12.85;8.85;;;12.60;99.90;;;;;;4919422;29;20150;-83
2022/11/12 10:12:30;;;;;;;11.48;8.82;;;13.30;99.90;;;;;;4919362;29;20392;-84
2022/11/12 10:14:51;;;;;;;10.18;7.63;;;13.30;99.90;;;;;;4935001;29;20040;-82
2022/11/12 10:17:27;;;;;;;12.20;8.77;;;12.90;99.90;;;;;;4919072;29;20047;-83
2022/11/12 10:19:56;;;;;;;;;;;12.40;99.90;;;;;;4919380;29;20057;-83
2022/11/12 10:22:31;;;;;;;10.85;8.82;;;11.70;99.90;;;;;;4919390;29;19919;-83
2022/11/12 10:24:58;;;;;;;9.88;8.32;;;11.30;99.90;;;;;;4920053;29;20079;-86
2022/11/12 10:27:34;;;;;;;10.38;8.40;;;10.90;99.90;;;;;;4905190;29;20048;-85
2022/11/12 10:30:04;;;;;;;9.95;8.55;;;10.70;99.90;;;;;;4929436;29;20043;-85
2022/11/12 10:32:29;;;;;;;12.25;9.38;;;10.50;99.90;;;;;;4922575;29;20040;-83
2022/11/12 10:34:55;;;;;;;16.20;9.18;;;10.40;99.90;;;;;;4922768;29;20043;-82
2022/11/12 10:37:34;;;;;;;11.63;9.27;;;10.30;99.90;;;;;;4901880;29;20044;-82
2022/11/12 10:40:20;;;;;;;11.85;9.15;;;10.30;99.90;;;;;;4922562;29;20083;-82
2022/11/12 10:43:00;;;;;;;12.55;8.85;;;10.10;99.90;;;;;;4938242;29;20039;-81
2022/11/12 10:45:27;;;;;;;13.52;9.20;;;10.30;99.90;;;;;;4938039;29;20391;-81
2022/11/12 10:47:52;;;;;;;11.75;9.18;;;10.20;99.90;;;;;;4941292;29;20134;-82
2022/11/12 10:50:28;;;;;;;11.95;9.75;;;10.20;99.90;;;;;;4910238;29;20071;-82
2022/11/12 10:52:55;;;;;;;13.23;9.50;;;10.30;99.90;;;;;;4941620;29;20042;-82
2022/11/12 10:55:34;;;;;;;11.98;9.13;;;10.30;99.90;;;;;;4957628;29;20450;-82
2022/11/12 10:58:09;;;;;;;13.23;8.75;;;10.40;99.90;;;;;;4941133;29;20110;-82
2022/11/12 11:00:36;;;;;;;12.10;9.10;;;10.50;99.90;;;;;;4952646;29;20071;-81
2022/11/12 11:03:15;;;;;;;11.27;8.95;;;10.70;99.90;;;;;;4944885;29;20103;-82
2022/11/12 11:06:10;;;;;;;10.82;8.98;;;10.80;99.90;;;;;;4956607;29;20059;-82
2022/11/12 11:08:53;;;;;;;10.05;8.05;;;11.00;99.90;;;;;;4920499;29;20054;-83
2022/11/12 11:11:28;;;;;;;11.80;8.48;;;11.20;99.90;;;;;;4925290;29;20047;-82
2022/11/12 11:13:57;;;;;;;13.52;9.07;;;11.60;99.90;;;;;;4942128;29;20055;-83
2022/11/12 11:16:28;;;;;;;12.30;8.70;;;11.80;99.90;;;;;;4954080;29;20087;-83
2022/11/12 11:18:55;;;;;;;11.18;8.45;;;11.90;99.90;;;;;;4938420;29;20377;-82
2022/11/12 11:21:21;;;;;;;15.65;9.35;;;11.90;99.90;;;;;;4926875;29;20486;-82
2022/11/12 11:24:01;;;;;;;11.60;9.02;;;11.80;99.90;;;;;;4942869;29;20090;-82
2022/11/12 11:27:01;;;;;;;14.15;9.40;;;11.80;99.90;;;;;;4958295;29;20129;-82
2022/11/12 11:29:44;;;;;;;14.55;8.95;;;11.90;99.90;;;;;;4943076;29;20141;-82
2022/11/12 11:32:38;;;;;;;11.35;8.45;;;11.90;99.90;;;;;;4942147;29;20035;-82
2022/11/12 11:35:18;;;;;;;12.55;8.32;;;11.90;99.90;;;;;;4925743;29;20036;-81
2022/11/12 11:37:56;;;;;;;10.82;8.43;;;11.80;99.90;;;;;;4921683;29;20122;-82
2022/11/12 11:40:42;;;;;;;11.35;8.02;;;11.80;99.90;;;;;;4937317;29;20048;-82
2022/11/12 11:43:35;;;;;;;10.85;8.70;;;11.80;99.90;;;;;;4913122;29;20035;-82
2022/11/12 11:46:51;;;;;;;12.32;8.23;;;12.10;99.90;;;;;;4936674;29;20052;-83
2022/11/12 11:49:38;;;;;;;10.57;8.15;;;12.20;99.90;;;;;;4951773;29;20055;-83
2022/11/12 11:52:13;;;;;;;10.82;8.45;;;12.10;99.90;;;;;;4951991;29;20121;-83
2022/11/12 11:54:54;;;;;;;11.93;8.00;;;12.00;99.90;;;;;;4940003;29;20047;-82
2022/11/12 11:57:28;;;;;;;10.85;8.60;;;11.90;99.90;;;;;;4939690;29;20054;-83
2022/11/12 12:00:07;;;;;;;10.27;7.43;;;11.80;99.90;;;;;;4940478;29;20043;-82
2022/11/12 12:03:14;;;;;;;11.38;8.23;;;11.80;99.90;;;;;;4939964;29;20043;-81
2022/11/12 12:06:01;;;;;;;11.95;8.40;;;11.70;99.90;;;;;;4889090;29;20047;-82
2022/11/12 12:08:53;;;;;;;10.55;8.15;;;11.70;99.90;;;;;;4939926;29;20102;-82
2022/11/12 12:11:40;;;;;;;10.05;8.32;;;11.70;99.90;;;;;;4955365;29;20054;-81
2022/11/12 12:14:35;;;;;;;11.27;8.73;;;11.60;99.90;;;;;;4934693;29;20054;-82
2022/11/12 12:17:15;;;;;;;12.02;8.65;;;11.70;99.90;;;;;;4935615;29;20126;-82
2022/11/12 12:19:57;;;;;;;10.93;8.77;;;11.70;99.90;;;;;;4934736;29;20089;-82
2022/11/12 12:22:34;;;;;;;11.10;7.63;;;11.70;99.90;;;;;;4938713;29;20047;-82
2022/11/12 12:25:22;;;;;;;9.50;8.25;;;11.70;99.90;;;;;;4939436;29;20066;-82
2022/11/12 12:28:26;;;;;;;11.00;8.63;;;11.60;99.90;;;;;;4938932;29;20075;-82
2022/11/12 12:30:56;;;;;;;11.73;8.70;;;11.60;99.90;;;;;;4927980;29;20501;-82
2022/11/12 12:33:39;;;;;;;13.20;8.98;;;11.70;99.90;;;;;;4939267;29;20039;-82
2022/11/12 12:36:38;;;;;;;12.40;8.40;;;11.70;99.90;;;;;;4939427;29;20035;-82
2022/11/12 12:39:17;;;;;;;12.73;8.80;;;11.80;99.90;;;;;;4940179;29;20090;-82
2022/11/12 12:41:53;;;;;;;10.63;8.60;;;11.80;99.90;;;;;;4955482;29;20047;-82
2022/11/12 12:44:21;;;;;;;10.93;8.77;;;11.80;99.90;;;;;;4955745;29;20074;-85
2022/11/12 12:46:57;;;;;;;12.80;9.52;;;11.90;99.90;;;;;;4956089;29;20043;-84
2022/11/12 12:49:33;;;;;;;10.57;8.07;;;11.90;99.90;;;;;;4955818;29;20404;-84
2022/11/12 12:51:59;;;;;;;12.02;8.45;;;12.00;99.90;;;;;;4938524;29;20047;-82
2022/11/12 12:54:34;;;;;;;11.27;8.60;;;12.50;99.90;;;;;;4923656;29;20130;-82
2022/11/12 12:57:02;;;;;;;10.00;8.17;;;12.00;99.90;;;;;;4939598;29;20052;-82
2022/11/12 12:59:27;;;;;;;12.15;8.55;;;12.00;99.90;;;;;;4939821;29;20440;-82
2022/11/12 13:02:02;;;;;;;11.90;8.27;;;12.10;99.90;;;;;;4955214;29;20042;-82
2022/11/12 13:04:51;;;;;;;10.13;8.70;;;12.20;99.90;;;;;;4923180;29;20036;-82
2022/11/12 13:07:36;;;;;;;10.10;7.85;;;12.30;99.90;;;;;;4920151;29;20044;-82
2022/11/12 13:10:40;;;;;;;9.73;7.70;;;12.30;99.90;;;;;;4919782;29;20134;-82
2022/11/12 13:13:18;;;;;;;10.65;8.18;;;12.40;99.90;;;;;;4899717;29;20048;-82
2022/11/12 13:16:06;;;;;;;10.07;8.43;;;12.40;99.90;;;;;;4925082;29;20039;-82
2022/11/12 13:18:38;;;;;;;10.50;8.40;;;12.40;99.90;;;;;;4938758;29;20065;-82